This is the latest recevied weather packets stored in our database for station/object IU1OLT-6. If no packets are shown the sender has not sent any weather packets the latest 10 day(s).
| Time | Temp. | Humidity | Pressure | Rain* | Wind** | Luminosity | Snow |
|---|---|---|---|---|---|---|---|
| 1788242196 | 13.89° C | 92% | 1013.7 hPa | 0 mm | - | - | - |
| 1788241188 | 13.33° C | 96% | 1013.7 hPa | 0 mm | - | - | - |
| 1788240228 | 13.33° C | 96% | 1013.7 hPa | 0 mm | - | - | - |
| 1788239172 | 13.33° C | 96% | 1013.6 hPa | 0 mm | - | - | - |
| 1788238212 | 13.33° C | 96% | 1013.5 hPa | 0 mm | - | - | - |
| 1788237252 | 13.33° C | 97% | 1013.6 hPa | 0 mm | - | - | - |
| 1788236292 | 13.33° C | 96% | 1013.5 hPa | 0 mm | - | - | - |
| 1788235380 | 13.89° C | 96% | 1013.4 hPa | 0 mm | - | - | - |
| 1788234468 | 13.33° C | 95% | 1013.3 hPa | 0 mm | - | - | - |
| 1788233508 | 14.44° C | 88% | 1013.5 hPa | 0 mm | - | - | - |
| 1788232548 | 16.11° C | 63% | 1013.5 hPa | 0 mm | - | - | - |
| 1788231588 | 16.67° C | 63% | 1013.6 hPa | 0 mm | - | - | - |
| 1788230628 | 16.67° C | 64% | 1013.7 hPa | 0 mm | - | - | - |
| 1788229668 | 16.11° C | 70% | 1013.7 hPa | 0 mm | - | - | - |
| 1788228756 | 15.56° C | 75% | 1013.6 hPa | 0 mm | - | - | - |
| 1788227844 | 16.67° C | 72% | 1013.6 hPa | 0 mm | - | - | - |
| 1788226884 | 17.22° C | 54% | 1013.5 hPa | 0 mm | - | - | - |
| 1788225925 | 16.67° C | 57% | 1013.6 hPa | 0 mm | - | - | - |
| 1788224964 | 17.22° C | 57% | 1013.6 hPa | 0 mm | - | - | - |
| 1788224052 | 17.22° C | 58% | 1013.5 hPa | 0 mm | - | - | - |
| 1788223141 | 17.78° C | 54% | 1013.6 hPa | 0 mm | - | - | - |
| 1788222180 | 17.78° C | 55% | 1013.6 hPa | 0 mm | - | - | - |
| 1788221220 | 17.78° C | 59% | 1013.6 hPa | 0 mm | - | - | - |
| 1788220260 | 17.22° C | 58% | 1013.7 hPa | 0 mm | - | - | - |
| 1788219301 | 17.22° C | 63% | 1013.8 hPa | 0 mm | - | - | - |
* Rain latest hour (hover to see other rain measurements)
** Current wind speed in m/s (hover to see current wind gust speed)